Time;durP1;ratioP1;P1;durP2;ratioP2;P2;SDS_P1;SDS_P2;PMS_P1;PMS_P2;Temp;Humidity;BMP_temperature;BMP_pressure;BME280_temperature;BME280_humidity;BME280_pressure;Samples;Min_cycle;Max_cycle;Signal;HPM_P1;HPM_P2
2022/02/16 00:04:25;;;;;;;;;;;;;;;;;;;;;
2022/02/16 00:10:36;;;;;;;89.20;75.97;;;8.00;99.90;;;;;;4884745;29;20186;-84
2022/02/16 00:16:50;;;;;;;191.02;176.25;;;8.00;99.90;;;;;;4879310;29;20210;-83
2022/02/16 00:20:12;;;;;;;91.20;79.38;;;8.00;99.90;;;;;;4874376;29;20185;-83
2022/02/16 00:23:27;;;;;;;154.25;141.77;;;8.00;99.90;;;;;;4865871;29;20250;-83
2022/02/16 00:30:15;;;;;;;;;;;;;;;;;;;;;
2022/02/16 00:33:11;;;;;;;179.55;166.18;;;7.90;99.90;;;;;;4863245;29;20633;-83
2022/02/16 00:39:17;;;;;;;193.18;179.20;;;8.00;99.90;;;;;;4875407;29;20178;-83
2022/02/16 00:49:02;;;;;;;137.23;125.65;;;8.00;99.90;;;;;;4826482;29;20722;-83
2022/02/16 00:51:56;;;;;;;166.13;153.20;;;8.00;99.90;;;;;;4826859;29;20279;-83
2022/02/16 00:55:00;;;;;;;136.30;124.40;;;8.00;99.90;;;;;;4844530;29;20568;-83
2022/02/16 00:58:12;;;;;;;;;;;;;;;;;;;;;
2022/02/16 01:01:43;;;;;;;105.30;94.95;;;8.00;99.90;;;;;;4881459;29;20196;-83
2022/02/16 01:04:16;;;;;;;134.90;123.47;;;8.00;99.90;;;;;;4882694;29;20185;-83
2022/02/16 01:13:56;;;;;;;111.10;100.00;;;8.10;99.90;;;;;;4852217;29;20178;-83
2022/02/16 01:17:33;;;;;;;118.45;107.40;;;8.20;99.90;;;;;;4860106;29;20263;-83
2022/02/16 01:20:16;;;;;;;119.00;107.72;;;8.20;99.90;;;;;;4860903;29;20564;-83
2022/02/16 01:23:10;;;;;;;101.93;91.68;;;8.20;99.90;;;;;;4846995;29;20279;-83
2022/02/16 01:25:55;;;;;;;96.20;86.07;;;8.20;99.90;;;;;;4862048;29;20223;-83
2022/02/16 01:28:49;;;;;;;;;;;;;;;;;;;;;
2022/02/16 01:35:46;;;;;;;111.35;100.70;;;8.30;99.90;;;;;;4882971;29;20563;-83
2022/02/16 01:39:14;;;;;;;105.85;95.43;;;8.30;99.90;;;;;;4881584;29;20193;-84
2022/02/16 01:48:09;;;;;;;103.22;92.82;;;8.30;99.90;;;;;;3199983;27;20301;-84
2022/02/16 01:51:38;;;;;;;149.40;136.88;;;8.30;99.90;;;;;;4871782;29;20182;-84
2022/02/16 01:55:09;;;;;;;101.72;91.43;;;8.30;99.90;;;;;;4859610;29;20277;-84
2022/02/16 01:58:34;;;;;;;;;;;;;;;;;;;;;
2022/02/16 02:05:31;;;;;;;86.90;70.15;;;8.40;99.90;;;;;;4806898;29;20181;-84
2022/02/16 02:08:27;;;;;;;99.95;89.68;;;8.40;99.90;;;;;;4774580;30;20186;-84
2022/02/16 02:11:41;;;;;;;119.97;108.50;;;8.40;99.90;;;;;;4791931;29;20181;-84
2022/02/16 02:14:53;;;;;;;;;;;;;;;;;;;;;
2022/02/16 02:18:26;;;;;;;101.38;91.07;;;8.40;99.90;;;;;;4807483;29;20166;-84
2022/02/16 02:24:10;;;;;;;96.00;85.85;;;8.30;99.90;;;;;;4806907;29;20294;-84
2022/02/16 02:29:54;;;;;;;127.25;115.60;;;8.30;99.90;;;;;;4873749;29;20269;-84
2022/02/16 02:33:19;;;;;;;;;;;;;;;;;;;;;
2022/02/16 02:36:37;;;;;;;;;;;;;;;;;;;;;
2022/02/16 02:39:49;;;;;;;105.72;95.28;;;8.40;99.90;;;;;;4824762;29;20187;-84
2022/02/16 02:43:08;;;;;;;108.47;97.95;;;8.40;99.90;;;;;;4842279;29;20218;-83
2022/02/16 02:46:37;;;;;;;98.68;88.43;;;8.30;99.90;;;;;;4866561;29;20580;-83
2022/02/16 02:50:15;;;;;;;;;;;;;;;;;;;;;
2022/02/16 02:53:34;;;;;;;;;;;;;;;;;;;;;
2022/02/16 02:56:35;;;;;;;99.22;88.95;;;8.30;99.90;;;;;;4823927;29;20219;-83
2022/02/16 02:59:39;;;;;;;115.93;105.22;;;8.40;99.90;;;;;;4828656;29;20168;-83
2022/02/16 03:12:22;;;;;;;97.05;86.82;;;8.40;99.90;;;;;;4828265;29;20750;-84
2022/02/16 03:15:16;;;;;;;114.97;103.80;;;8.40;99.90;;;;;;4879551;29;20194;-83
2022/02/16 03:18:50;;;;;;;;;;;;;;;;;;;;;
2022/02/16 03:21:41;;;;;;;;;;;;;;;;;;;;;
2022/02/16 03:28:27;;;;;;;86.18;68.72;;;8.50;99.90;;;;;;4809944;29;20219;-84
2022/02/16 03:31:35;;;;;;;95.72;85.63;;;8.60;99.90;;;;;;4808674;29;20181;-85
2022/02/16 03:33:49;;;;;;;91.97;75.60;;;8.60;99.90;;;;;;4809343;29;20181;-84
2022/02/16 03:36:37;;;;;;;91.25;71.82;;;8.60;99.90;;;;;;4791048;30;20201;-84
2022/02/16 03:46:04;;;;;;;92.30;82.32;;;8.70;99.90;;;;;;4865150;29;20207;-85
2022/02/16 03:49:02;;;;;;;91.53;74.43;;;8.70;99.90;;;;;;4865168;29;20589;-85
2022/02/16 03:52:23;;;;;;;88.78;77.65;;;8.80;99.90;;;;;;4865142;29;20214;-85
2022/02/16 03:55:15;;;;;;;94.22;84.28;;;8.80;99.90;;;;;;4865191;29;20262;-84
2022/02/16 03:58:18;;;;;;;91.40;73.20;;;8.80;99.90;;;;;;4866710;29;20176;-85
2022/02/16 04:08:27;;;;;;;88.03;74.75;;;8.80;99.90;;;;;;4856177;29;20175;-85
2022/02/16 04:15:46;;;;;;;88.05;74.15;;;8.80;99.90;;;;;;4827414;29;20181;-84
2022/02/16 04:18:24;;;;;;;94.22;84.15;;;8.90;99.90;;;;;;4811798;29;20683;-85
2022/02/16 04:22:03;;;;;;;;;;;;;;;;;;;;;
2022/02/16 04:25:25;;;;;;;;;;;;;;;;;;;;;
2022/02/16 04:28:21;;;;;;;85.32;63.15;;;8.90;99.90;;;;;;4807983;29;20177;-84
2022/02/16 04:45:45;;;;;;;84.93;66.05;;;8.80;99.90;;;;;;4830749;29;20176;-84
2022/02/16 04:48:35;;;;;;;;;;;;;;;;;;;;;
2022/02/16 04:57:42;;;;;;;92.15;82.18;;;8.90;99.90;;;;;;4946637;23;20287;-87
2022/02/16 05:00:09;;;;;;;98.50;88.10;;;8.90;99.90;;;;;;4878797;29;20547;-87
2022/02/16 05:02:35;;;;;;;95.65;85.53;;;8.90;99.90;;;;;;4878847;29;20213;-87
2022/02/16 05:05:01;;;;;;;87.47;73.30;;;8.90;99.90;;;;;;4879663;29;20675;-88
2022/02/16 05:07:27;;;;;;;83.18;60.95;;;8.80;99.90;;;;;;4879531;29;20173;-87
2022/02/16 05:09:53;;;;;;;100.40;89.68;;;8.90;99.90;;;;;;4879285;29;20223;-88
2022/02/16 05:12:19;;;;;;;91.40;68.13;;;8.80;99.90;;;;;;4879999;29;20174;-87
2022/02/16 05:14:50;;;;;;;87.55;72.28;;;8.80;99.90;;;;;;4878669;29;20183;-88
2022/02/16 05:17:16;;;;;;;185.05;171.13;;;8.90;99.90;;;;;;4880333;29;20163;-88
2022/02/16 05:19:42;;;;;;;90.07;79.17;;;8.90;99.90;;;;;;4879793;29;20177;-87
2022/02/16 05:22:08;;;;;;;86.40;69.60;;;9.00;99.90;;;;;;4878455;29;20198;-88
2022/02/16 05:24:34;;;;;;;92.63;76.00;;;9.00;99.90;;;;;;4879967;29;20175;-87
2022/02/16 05:27:00;;;;;;;82.47;56.77;;;9.00;99.90;;;;;;4879693;29;20192;-87
2022/02/16 05:29:25;;;;;;;83.60;59.70;;;9.00;99.90;;;;;;4879616;29;20245;-87
2022/02/16 05:31:51;;;;;;;96.93;86.77;;;9.10;99.90;;;;;;4879830;29;20411;-87
2022/02/16 05:34:17;;;;;;;82.90;59.80;;;9.00;99.90;;;;;;4878395;29;20178;-87
2022/02/16 05:36:43;;;;;;;86.67;70.40;;;9.10;99.90;;;;;;4879923;29;20197;-88
2022/02/16 05:39:09;;;;;;;84.00;62.83;;;9.10;99.90;;;;;;4879446;29;20175;-87
2022/02/16 05:41:35;;;;;;;89.97;73.30;;;9.10;99.90;;;;;;4879509;29;20198;-87
2022/02/16 05:44:00;;;;;;;85.53;66.90;;;9.10;99.90;;;;;;4878375;29;20166;-88
2022/02/16 05:46:26;;;;;;;88.80;65.13;;;9.10;99.90;;;;;;4878493;29;20431;-88
2022/02/16 05:48:52;;;;;;;85.23;65.80;;;9.10;99.90;;;;;;4878288;29;20603;-88
2022/02/16 05:51:17;;;;;;;87.80;73.23;;;9.10;99.90;;;;;;4878117;29;20186;-87
2022/02/16 05:53:43;;;;;;;88.47;63.27;;;9.10;99.90;;;;;;4879478;29;20201;-87
2022/02/16 05:56:09;;;;;;;78.87;48.03;;;9.20;99.90;;;;;;4879561;29;20205;-87
2022/02/16 05:58:35;;;;;;;111.70;93.78;;;9.20;99.90;;;;;;4878204;29;20171;-87
2022/02/16 06:01:01;;;;;;;81.93;57.00;;;9.20;99.90;;;;;;4879380;29;20243;-87
2022/02/16 06:03:27;;;;;;;84.22;62.03;;;9.20;99.90;;;;;;4881008;29;20643;-88
2022/02/16 06:05:53;;;;;;;99.67;88.97;;;9.20;99.90;;;;;;4882340;29;20206;-87
2022/02/16 06:08:19;;;;;;;85.50;67.07;;;9.30;99.90;;;;;;4881835;29;20215;-87
2022/02/16 06:10:45;;;;;;;90.75;80.70;;;9.30;99.90;;;;;;4881861;29;20264;-88
2022/02/16 06:13:12;;;;;;;86.43;69.93;;;9.30;99.90;;;;;;4881789;29;20174;-87
2022/02/16 06:15:38;;;;;;;86.55;64.32;;;9.30;99.90;;;;;;4881966;29;20446;-87
2022/02/16 06:18:04;;;;;;;83.80;62.77;;;9.30;99.90;;;;;;4883109;29;20183;-87
2022/02/16 06:20:32;;;;;;;91.17;81.20;;;9.30;99.90;;;;;;4882928;29;20430;-87
2022/02/16 06:22:58;;;;;;;209.80;193.35;;;9.30;99.90;;;;;;4881911;29;20541;-89
2022/02/16 06:25:27;;;;;;;186.33;171.13;;;9.30;99.90;;;;;;4882788;29;20219;-87
2022/02/16 06:27:52;;;;;;;86.80;69.95;;;9.30;99.90;;;;;;4881929;29;20256;-88
2022/02/16 06:30:18;;;;;;;86.37;69.40;;;9.30;99.90;;;;;;4882639;29;20219;-88
2022/02/16 06:32:45;;;;;;;80.60;53.70;;;9.30;99.90;;;;;;4882864;29;20170;-87
2022/02/16 06:35:11;;;;;;;90.65;69.95;;;9.20;99.90;;;;;;4881401;29;20234;-87
2022/02/16 06:37:37;;;;;;;86.55;70.13;;;9.30;99.90;;;;;;4881517;29;20181;-87
2022/02/16 06:40:04;;;;;;;86.63;69.53;;;9.30;99.90;;;;;;4882989;29;20186;-87
2022/02/16 06:42:30;;;;;;;89.75;67.45;;;9.30;99.90;;;;;;4881777;29;20281;-87
2022/02/16 06:44:55;;;;;;;86.77;70.27;;;9.30;99.90;;;;;;4881760;29;20263;-86
2022/02/16 06:47:21;;;;;;;91.57;73.20;;;9.30;99.90;;;;;;4882926;29;20407;-87
2022/02/16 06:49:47;;;;;;;81.70;54.23;;;9.30;99.90;;;;;;4881903;29;20204;-86
2022/02/16 06:52:16;;;;;;;86.20;69.20;;;9.30;99.90;;;;;;4883175;29;20543;-87
2022/02/16 06:54:42;;;;;;;86.00;67.90;;;9.30;99.90;;;;;;4882469;29;20179;-87
2022/02/16 06:57:07;;;;;;;117.50;106.20;;;9.30;99.90;;;;;;4882593;29;20197;-87
2022/02/16 06:59:33;;;;;;;83.27;60.30;;;9.30;99.90;;;;;;4884501;29;20434;-86
2022/02/16 07:01:58;;;;;;;86.73;64.97;;;9.40;99.90;;;;;;4884263;29;20183;-87
2022/02/16 07:04:25;;;;;;;105.37;94.90;;;9.40;99.90;;;;;;4883566;29;20555;-87
2022/02/16 07:06:51;;;;;;;92.28;74.80;;;9.40;99.90;;;;;;4882815;29;20182;-86
2022/02/16 07:09:16;;;;;;;106.53;95.50;;;9.50;99.90;;;;;;4881949;29;20706;-86
2022/02/16 07:11:42;;;;;;;87.70;73.13;;;9.50;99.90;;;;;;4883274;29;20567;-87
2022/02/16 07:14:08;;;;;;;84.68;64.70;;;9.50;99.90;;;;;;4882226;29;20176;-87
2022/02/16 07:16:34;;;;;;;84.77;65.17;;;9.50;99.90;;;;;;4882533;29;20202;-87
2022/02/16 07:18:59;;;;;;;86.03;69.50;;;9.50;99.90;;;;;;4882265;29;20193;-87
2022/02/16 07:21:26;;;;;;;78.00;43.37;;;9.60;99.90;;;;;;4881078;29;20207;-86
2022/02/16 07:23:53;;;;;;;82.20;56.28;;;9.60;99.90;;;;;;4881668;29;20257;-87
2022/02/16 07:26:19;;;;;;;135.13;122.95;;;9.60;99.90;;;;;;4881929;29;20731;-87
2022/02/16 07:28:45;;;;;;;81.23;53.63;;;9.60;99.90;;;;;;4882423;29;20175;-87
2022/02/16 07:31:11;;;;;;;85.17;67.30;;;9.60;99.90;;;;;;4881279;29;20928;-87
2022/02/16 07:33:37;;;;;;;91.50;74.87;;;9.60;99.90;;;;;;4881028;29;20266;-86
2022/02/16 07:36:02;;;;;;;82.90;59.97;;;9.70;99.90;;;;;;4882397;29;20430;-87
2022/02/16 07:38:28;;;;;;;83.93;61.77;;;9.70;99.90;;;;;;4882001;29;20189;-87
2022/02/16 07:40:57;;;;;;;94.07;81.57;;;9.70;99.90;;;;;;4880534;29;20418;-87
2022/02/16 07:43:23;;;;;;;82.60;59.80;;;9.70;99.90;;;;;;4880477;29;20330;-87
2022/02/16 07:45:48;;;;;;;89.03;64.30;;;9.70;99.90;;;;;;4881901;29;20202;-87
2022/02/16 07:48:14;;;;;;;91.77;74.17;;;9.80;99.90;;;;;;4880752;29;20194;-86
2022/02/16 07:50:39;;;;;;;80.40;51.30;;;9.80;99.90;;;;;;4882213;29;20509;-86
2022/02/16 07:53:05;;;;;;;77.87;43.70;;;9.80;99.90;;;;;;4884857;29;20647;-86
2022/02/16 07:55:32;;;;;;;77.57;44.00;;;9.80;99.90;;;;;;4884421;29;20225;-86
2022/02/16 07:57:58;;;;;;;79.05;43.42;;;9.80;99.90;;;;;;4884722;29;20191;-86
2022/02/16 08:00:25;;;;;;;78.68;46.00;;;9.80;99.90;;;;;;4883465;29;20216;-86
2022/02/16 08:02:51;;;;;;;83.30;58.55;;;9.70;99.90;;;;;;4886569;29;20206;-86
2022/02/16 08:05:16;;;;;;;85.30;61.37;;;9.70;99.90;;;;;;4887100;29;20655;-86
2022/02/16 08:07:42;;;;;;;89.93;66.97;;;9.70;99.90;;;;;;4882856;29;20545;-87
2022/02/16 08:10:08;;;;;;;87.10;65.63;;;9.70;99.90;;;;;;4886534;29;20627;-87
2022/02/16 08:12:46;;;;;;;83.07;56.30;;;9.70;99.90;;;;;;4883460;29;20174;-87
2022/02/16 08:15:12;;;;;;;84.82;60.38;;;9.70;99.90;;;;;;4881456;29;20201;-87
2022/02/16 08:17:38;;;;;;;86.60;67.87;;;9.70;99.90;;;;;;4880852;29;20555;-87
2022/02/16 08:20:09;;;;;;;84.75;61.47;;;9.70;99.90;;;;;;4880539;29;20181;-86
2022/02/16 08:22:35;;;;;;;90.07;75.78;;;9.80;99.90;;;;;;4881194;29;20209;-87
2022/02/16 08:25:02;;;;;;;85.83;65.00;;;9.80;99.90;;;;;;4883966;29;20186;-86
2022/02/16 08:27:28;;;;;;;88.47;58.88;;;9.80;99.90;;;;;;4881038;29;20167;-87
2022/02/16 08:29:54;;;;;;;86.82;67.47;;;9.90;99.90;;;;;;4881366;29;20206;-87
2022/02/16 08:32:19;;;;;;;84.27;57.13;;;10.10;99.90;;;;;;4880048;29;20226;-87
2022/02/16 08:34:45;;;;;;;82.17;52.67;;;10.20;99.90;;;;;;4880766;29;20425;-86
2022/02/16 08:37:11;;;;;;;78.87;36.77;;;10.20;99.90;;;;;;4882874;29;20204;-87
2022/02/16 08:39:36;;;;;;;79.30;46.73;;;10.30;99.90;;;;;;4882089;29;20178;-87
2022/02/16 08:42:03;;;;;;;91.27;68.77;;;10.20;99.90;;;;;;4885215;29;20198;-86
2022/02/16 08:44:30;;;;;;;84.95;62.63;;;10.20;99.90;;;;;;4884624;29;20258;-86
2022/02/16 08:46:56;;;;;;;95.97;78.35;;;10.10;99.90;;;;;;4885217;29;20640;-86
2022/02/16 08:49:22;;;;;;;88.60;70.75;;;10.10;99.90;;;;;;4883609;29;20171;-86
2022/02/16 08:51:48;;;;;;;86.70;67.72;;;10.20;99.90;;;;;;4883463;29;20178;-86
2022/02/16 08:54:14;;;;;;;87.13;62.10;;;10.30;99.90;;;;;;4881584;29;20163;-87
2022/02/16 08:56:40;;;;;;;86.10;63.53;;;10.40;99.90;;;;;;4880840;29;20443;-87
2022/02/16 08:59:06;;;;;;;87.67;60.97;;;10.50;99.90;;;;;;4880719;29;20170;-87
2022/02/16 09:01:32;;;;;;;80.87;43.47;;;10.60;99.90;;;;;;4880749;29;20269;-87
2022/02/16 09:04:05;;;;;;;82.65;48.53;;;10.70;99.90;;;;;;4879330;29;20170;-86
2022/02/16 09:06:33;;;;;;;85.32;55.08;;;10.70;99.90;;;;;;4879195;29;20195;-87
2022/02/16 09:08:58;;;;;;;82.65;51.33;;;10.60;99.90;;;;;;4880485;29;20166;-87
2022/02/16 09:11:26;;;;;;;85.03;59.20;;;10.80;99.90;;;;;;4880387;29;20762;-87
2022/02/16 09:13:52;;;;;;;79.40;46.15;;;10.90;99.90;;;;;;4880533;29;20245;-87
2022/02/16 09:16:18;;;;;;;84.10;58.28;;;10.90;99.90;;;;;;4880160;29;20218;-87
2022/02/16 09:18:44;;;;;;;79.90;48.67;;;11.00;99.90;;;;;;4880362;29;20232;-87
2022/02/16 09:21:12;;;;;;;79.97;47.57;;;11.00;99.90;;;;;;4878645;29;20178;-86
2022/02/16 09:23:39;;;;;;;77.45;38.85;;;11.00;99.90;;;;;;4878802;29;20181;-87
2022/02/16 09:26:06;;;;;;;75.22;29.98;;;11.10;99.90;;;;;;4880266;29;20798;-87
2022/02/16 09:28:33;;;;;;;75.78;34.55;;;11.10;99.90;;;;;;4880659;29;20171;-87
2022/02/16 09:31:00;;;;;;;74.07;25.65;;;11.10;99.90;;;;;;4880069;29;20163;-87
2022/02/16 09:33:28;;;;;;;74.50;25.02;;;11.20;99.90;;;;;;4880366;29;20539;-87
2022/02/16 09:35:56;;;;;;;71.53;19.58;;;11.20;99.90;;;;;;4880790;29;20195;-88
2022/02/16 09:38:22;;;;;;;69.88;19.38;;;11.20;99.90;;;;;;4879232;29;20269;-87
2022/02/16 09:40:50;;;;;;;70.27;20.63;;;11.30;99.90;;;;;;4881973;29;20213;-87
2022/02/16 09:43:19;;;;;;;69.93;18.90;;;11.30;99.90;;;;;;4879273;29;20450;-87
2022/02/16 09:45:45;;;;;;;70.28;18.33;;;11.30;99.90;;;;;;4881056;29;20186;-87
2022/02/16 09:48:11;;;;;;;71.47;22.35;;;11.40;99.90;;;;;;4881368;29;20163;-87
2022/02/16 09:50:37;;;;;;;74.80;22.80;;;11.50;99.90;;;;;;4880001;29;20338;-87
2022/02/16 09:53:03;;;;;;;72.87;23.60;;;11.50;99.90;;;;;;4880888;29;20411;-87
2022/02/16 09:55:29;;;;;;;70.78;20.30;;;11.60;99.90;;;;;;4878514;29;20201;-87
2022/02/16 09:57:55;;;;;;;72.50;21.85;;;11.60;99.90;;;;;;4879284;29;20197;-87
2022/02/16 10:00:21;;;;;;;71.30;22.33;;;11.70;99.90;;;;;;4880615;29;20640;-87
2022/02/16 10:02:47;;;;;;;71.82;24.48;;;11.70;99.90;;;;;;4879831;29;20198;-87
2022/02/16 10:05:15;;;;;;;71.97;24.60;;;11.80;99.90;;;;;;4878483;29;20734;-86
2022/02/16 10:07:47;;;;;;;71.38;23.58;;;11.80;99.90;;;;;;4879941;29;20915;-87
2022/02/16 10:10:24;;;;;;;69.93;19.63;;;11.90;99.90;;;;;;4880073;29;20250;-86
2022/02/16 10:12:54;;;;;;;71.63;24.42;;;11.90;99.90;;;;;;4879936;29;20182;-87
2022/02/16 10:15:52;;;;;;;70.93;21.27;;;12.00;99.90;;;;;;4879850;29;20194;-87
2022/02/16 10:18:18;;;;;;;69.68;19.42;;;12.00;99.90;;;;;;4868515;29;20655;-87
2022/02/16 10:20:44;;;;;;;71.83;26.00;;;12.10;99.90;;;;;;4879754;29;20174;-86
2022/02/16 10:23:10;;;;;;;72.55;27.60;;;12.10;99.90;;;;;;4878104;29;20203;-86
2022/02/16 10:25:37;;;;;;;72.40;26.13;;;12.30;99.90;;;;;;4878490;29;20230;-87
2022/02/16 10:28:12;;;;;;;69.55;18.65;;;12.40;99.90;;;;;;4878435;29;20192;-87
2022/02/16 10:30:54;;;;;;;70.18;19.25;;;12.60;99.90;;;;;;4878192;29;20551;-87
2022/02/16 10:33:33;;;;;;;70.32;20.75;;;12.80;99.90;;;;;;4880382;29;20237;-87
2022/02/16 10:36:02;;;;;;;71.20;23.27;;;13.00;99.90;;;;;;4879565;29;20197;-86
2022/02/16 10:38:29;;;;;;;70.03;19.17;;;13.30;99.90;;;;;;4879729;29;20639;-87
2022/02/16 10:41:04;;;;;;;79.82;34.03;;;13.50;99.90;;;;;;4879633;29;20170;-87
2022/02/16 10:43:41;;;;;;;71.85;25.90;;;13.50;99.90;;;;;;4879645;29;20190;-86
2022/02/16 10:46:19;;;;;;;76.47;37.70;;;13.50;99.90;;;;;;4879448;29;20693;-87
2022/02/16 10:48:45;;;;;;;77.63;41.45;;;13.50;99.90;;;;;;4878704;29;20181;-86
2022/02/16 10:51:16;;;;;;;80.33;49.53;;;13.50;99.90;;;;;;4881409;29;20171;-86
2022/02/16 10:53:42;;;;;;;78.97;44.38;;;13.50;99.90;;;;;;4881827;29;20178;-86
2022/02/16 10:59:05;;;;;;;77.55;41.17;;;13.60;99.90;;;;;;4899740;29;20218;-88
2022/02/16 11:01:33;;;;;;;78.90;45.25;;;13.60;99.90;;;;;;4899333;29;20244;-89
2022/02/16 11:07:25;;;;;;;77.32;39.53;;;13.70;99.90;;;;;;4874187;29;20218;-88
2022/02/16 11:10:01;;;;;;;79.03;45.42;;;13.70;99.90;;;;;;4881307;29;20181;-88
2022/02/16 11:12:55;;;;;;;76.07;37.35;;;13.70;99.90;;;;;;4882340;29;20182;-88
2022/02/16 11:15:52;;;;;;;75.38;34.33;;;13.80;99.90;;;;;;4882125;29;20205;-88
2022/02/16 11:18:33;;;;;;;81.65;39.97;;;13.70;99.90;;;;;;4878514;29;20187;-88
2022/02/16 11:21:31;;;;;;;75.00;35.05;;;13.70;99.90;;;;;;4881808;29;20181;-88
2022/02/16 11:23:58;;;;;;;74.93;34.77;;;13.80;99.90;;;;;;4860086;29;20183;-88
2022/02/16 11:26:45;;;;;;;76.82;38.83;;;13.80;99.90;;;;;;4865148;29;20870;-88
2022/02/16 11:30:02;;;;;;;74.07;31.20;;;13.80;99.90;;;;;;4861672;29;20559;-88
2022/02/16 11:32:56;;;;;;;79.15;45.17;;;13.80;99.90;;;;;;4874377;29;20196;-88
2022/02/16 11:35:30;;;;;;;78.38;42.58;;;13.80;99.90;;;;;;4881605;29;20198;-88
2022/02/16 11:38:39;;;;;;;88.13;58.28;;;13.80;99.90;;;;;;4881892;29;20182;-89
2022/02/16 11:41:23;;;;;;;73.75;29.02;;;13.90;99.90;;;;;;4842638;29;20203;-88
2022/02/16 11:44:00;;;;;;;73.32;27.90;;;13.90;99.90;;;;;;4881079;29;20209;-88
2022/02/16 11:46:56;;;;;;;78.80;42.47;;;13.90;99.90;;;;;;4881515;29;20250;-88
2022/02/16 11:49:30;;;;;;;73.32;28.52;;;13.90;99.90;;;;;;4880532;29;20706;-88
2022/02/16 11:52:20;;;;;;;79.50;44.95;;;14.00;99.90;;;;;;4878221;29;20190;-88
2022/02/16 11:55:56;;;;;;;73.70;30.00;;;13.90;99.90;;;;;;4860892;29;20234;-88
2022/02/16 11:58:31;;;;;;;72.57;26.73;;;14.10;99.90;;;;;;4876345;29;20591;-88
2022/02/16 12:01:09;;;;;;;72.70;27.15;;;14.10;99.90;;;;;;4879191;29;20234;-88
2022/02/16 12:03:48;;;;;;;71.78;24.95;;;14.20;99.90;;;;;;4881511;29;20174;-88
2022/02/16 12:06:41;;;;;;;74.38;31.95;;;14.20;99.90;;;;;;4879916;29;20620;-88
2022/02/16 12:09:45;;;;;;;88.23;58.73;;;14.30;99.90;;;;;;4880639;29;20262;-89
2022/02/16 12:12:12;;;;;;;72.67;27.17;;;14.30;99.90;;;;;;4861879;29;20549;-85
2022/02/16 12:14:40;;;;;;;84.15;46.17;;;14.30;99.90;;;;;;4884442;29;20416;-84
2022/02/16 12:17:06;;;;;;;80.97;37.05;;;14.40;99.90;;;;;;4884767;29;20170;-84
2022/02/16 12:19:33;;;;;;;71.07;23.00;;;14.50;99.90;;;;;;4883178;29;20210;-84
2022/02/16 12:22:07;;;;;;;72.18;25.52;;;14.50;99.90;;;;;;4883641;29;20194;-84
2022/02/16 12:24:32;;;;;;;69.77;18.63;;;14.50;99.90;;;;;;4882017;29;20263;-84
2022/02/16 12:27:03;;;;;;;70.53;18.50;;;14.60;99.90;;;;;;4883199;29;20435;-84
2022/02/16 12:29:39;;;;;;;70.87;21.87;;;14.70;99.90;;;;;;4884266;29;20179;-85
2022/02/16 12:32:05;;;;;;;68.93;16.97;;;14.60;99.90;;;;;;4884422;29;20387;-84
2022/02/16 12:34:33;;;;;;;68.57;15.10;;;14.60;99.90;;;;;;4883760;29;20415;-84
2022/02/16 12:37:08;;;;;;;67.68;12.75;;;14.60;99.90;;;;;;4881982;29;20201;-84
2022/02/16 12:39:38;;;;;;;68.40;14.70;;;14.60;99.90;;;;;;4882453;29;20558;-84
2022/02/16 12:42:08;;;;;;;68.88;16.48;;;14.70;99.90;;;;;;4883867;29;20202;-84
2022/02/16 12:47:14;;;;;;;71.03;16.55;;;14.70;99.90;;;;;;4895999;23;20547;-84
2022/02/16 12:49:42;;;;;;;70.17;20.10;;;14.70;99.90;;;;;;4882906;29;20238;-84
2022/02/16 12:52:17;;;;;;;69.72;18.65;;;14.70;99.90;;;;;;4880880;29;20456;-84
2022/02/16 12:54:48;;;;;;;68.57;16.10;;;14.60;99.90;;;;;;4882326;29;20207;-84
2022/02/16 12:57:14;;;;;;;68.90;17.30;;;14.60;99.90;;;;;;4880897;29;20183;-83
2022/02/16 13:02:30;;;;;;;68.68;15.98;;;14.50;99.90;;;;;;4882916;29;20468;-84
2022/02/16 13:04:58;;;;;;;76.37;36.90;;;14.30;99.90;;;;;;4883735;29;20177;-84
2022/02/16 13:07:30;;;;;;;93.85;69.85;;;14.10;99.90;;;;;;4884477;29;20414;-84
2022/02/16 13:09:57;;;;;;;82.70;45.05;;;13.90;99.90;;;;;;4884316;29;20171;-84
2022/02/16 13:12:43;;;;;;;76.28;37.78;;;13.70;99.90;;;;;;4883744;29;20209;-84
2022/02/16 13:15:15;;;;;;;77.30;39.80;;;13.60;99.90;;;;;;4885073;29;20217;-84
2022/02/16 13:17:53;;;;;;;78.93;44.50;;;13.60;99.90;;;;;;4885326;29;20235;-85
2022/02/16 13:20:26;;;;;;;75.30;34.75;;;13.50;99.90;;;;;;4882820;29;20170;-83
2022/02/16 13:23:17;;;;;;;85.63;50.20;;;13.50;99.90;;;;;;4882900;29;20205;-85
2022/02/16 13:25:45;;;;;;;75.07;31.65;;;13.50;99.90;;;;;;4884590;29;20692;-84
2022/02/16 13:28:19;;;;;;;76.43;32.10;;;13.50;99.90;;;;;;4883005;29;20199;-85
2022/02/16 13:30:50;;;;;;;74.38;31.45;;;13.50;99.90;;;;;;4884893;29;20155;-85
2022/02/16 13:33:24;;;;;;;77.13;38.60;;;13.50;99.90;;;;;;4884377;29;20194;-84
2022/02/16 13:36:00;;;;;;;75.50;27.98;;;13.60;99.90;;;;;;4883736;29;20185;-84
2022/02/16 13:38:34;;;;;;;76.75;35.85;;;13.70;99.90;;;;;;4881064;29;20193;-84
2022/02/16 13:41:03;;;;;;;75.45;34.10;;;13.80;99.90;;;;;;4883396;29;20241;-84
2022/02/16 13:43:49;;;;;;;76.63;30.80;;;13.90;99.90;;;;;;4881129;29;20195;-84
2022/02/16 13:46:17;;;;;;;75.05;26.65;;;13.90;99.90;;;;;;4882062;29;20209;-84
2022/02/16 13:48:44;;;;;;;75.53;29.20;;;14.00;99.90;;;;;;4883478;29;20190;-84
2022/02/16 13:51:15;;;;;;;72.13;23.77;;;14.10;99.90;;;;;;4883134;29;20173;-84
2022/02/16 13:53:52;;;;;;;71.20;17.87;;;14.10;99.90;;;;;;4881675;29;20583;-84
2022/02/16 13:56:20;;;;;;;70.00;14.53;;;14.10;99.90;;;;;;4882576;29;20784;-84
2022/02/16 13:58:48;;;;;;;69.72;13.32;;;14.10;99.90;;;;;;4882312;29;20446;-84
2022/02/16 14:01:17;;;;;;;71.82;15.05;;;14.20;99.90;;;;;;4881307;29;20174;-84
2022/02/16 14:04:00;;;;;;;69.65;14.57;;;14.10;99.90;;;;;;4883042;29;20219;-84
2022/02/16 14:06:28;;;;;;;74.00;19.47;;;14.10;99.90;;;;;;4883258;29;20182;-84
2022/02/16 14:08:54;;;;;;;73.70;14.43;;;14.10;99.90;;;;;;4882293;29;20940;-84
2022/02/16 14:11:21;;;;;;;71.10;14.47;;;14.10;99.90;;;;;;4882548;29;20409;-84
2022/02/16 14:13:47;;;;;;;72.10;22.05;;;14.10;99.90;;;;;;4882625;29;20175;-84
2022/02/16 14:16:12;;;;;;;72.30;18.47;;;14.10;99.90;;;;;;4883093;29;20193;-84
2022/02/16 14:18:38;;;;;;;70.27;15.83;;;14.10;99.90;;;;;;4884241;29;20166;-85
2022/02/16 14:21:04;;;;;;;73.70;15.97;;;14.00;99.90;;;;;;4884137;29;20635;-84
2022/02/16 14:23:35;;;;;;;70.47;16.90;;;14.10;99.90;;;;;;4884682;29;20560;-84
2022/02/16 14:26:01;;;;;;;70.65;15.10;;;14.10;99.90;;;;;;4887389;29;20713;-85
2022/02/16 14:28:29;;;;;;;69.50;13.83;;;14.10;99.90;;;;;;4886348;29;20170;-84
2022/02/16 14:30:55;;;;;;;74.18;15.10;;;14.10;99.90;;;;;;4887006;29;20174;-84
2022/02/16 14:33:23;;;;;;;70.00;17.73;;;14.20;99.90;;;;;;4885876;29;20278;-84
2022/02/16 14:35:49;;;;;;;73.13;25.53;;;14.10;99.90;;;;;;4885773;29;20435;-84
2022/02/16 14:38:15;;;;;;;69.13;15.93;;;14.10;99.90;;;;;;4887104;29;20470;-84
2022/02/16 14:40:41;;;;;;;71.30;18.93;;;14.10;99.90;;;;;;4887924;29;20641;-85
2022/02/16 14:43:06;;;;;;;69.93;19.07;;;14.00;99.90;;;;;;4886775;29;20549;-84
2022/02/16 14:45:35;;;;;;;71.50;18.33;;;14.10;99.90;;;;;;4887057;29;20454;-84
2022/02/16 14:48:01;;;;;;;70.50;19.92;;;14.10;99.90;;;;;;4885897;29;20178;-84
2022/02/16 14:50:27;;;;;;;83.23;42.13;;;14.10;99.90;;;;;;4887031;29;20167;-84
2022/02/16 14:52:54;;;;;;;71.17;22.27;;;14.10;99.90;;;;;;4885572;29;20201;-85
2022/02/16 14:55:24;;;;;;;72.93;27.07;;;14.00;99.90;;;;;;4886890;29;20427;-84
2022/02/16 14:57:50;;;;;;;72.28;25.55;;;14.00;99.90;;;;;;4887626;29;20392;-85
2022/02/16 15:00:16;;;;;;;71.73;25.03;;;13.90;99.90;;;;;;4886872;29;20631;-85
2022/02/16 15:02:44;;;;;;;71.35;23.83;;;13.90;99.90;;;;;;4887692;29;20197;-85
2022/02/16 15:05:11;;;;;;;83.15;39.53;;;13.80;99.90;;;;;;4887131;29;20608;-84
2022/02/16 15:07:39;;;;;;;74.55;32.00;;;13.80;99.90;;;;;;4887868;29;20196;-84
2022/02/16 15:10:06;;;;;;;75.95;36.35;;;13.80;99.90;;;;;;4887612;29;20162;-85
2022/02/16 15:12:34;;;;;;;75.35;32.85;;;13.80;99.90;;;;;;4887124;29;20373;-85
2022/02/16 15:15:03;;;;;;;74.75;28.80;;;13.80;99.90;;;;;;4887001;29;20201;-85
2022/02/16 15:17:29;;;;;;;77.87;34.67;;;13.90;99.90;;;;;;4887044;29;20175;-85
2022/02/16 15:19:55;;;;;;;75.60;25.97;;;13.90;99.90;;;;;;4887025;29;20410;-85
2022/02/16 15:22:24;;;;;;;78.17;26.70;;;13.80;99.90;;;;;;4886915;29;20209;-85
2022/02/16 15:25:01;;;;;;;73.70;16.35;;;13.90;99.90;;;;;;4885628;29;20183;-84
2022/02/16 15:27:31;;;;;;;68.70;14.03;;;13.90;99.90;;;;;;4884690;29;20178;-85
2022/02/16 15:29:57;;;;;;;72.20;18.93;;;13.90;99.90;;;;;;4886343;29;20403;-85
2022/02/16 15:32:23;;;;;;;74.03;21.47;;;14.00;99.90;;;;;;4885913;29;20419;-85